»·PEaware :: AAY608 KIWA-KPVU

AAY608 :: KIWA-KPVU

FLIGHT INFORMATION

Flight Status: Arrived
Operator:
Allegiant Air
More flights by this operator :: More flights under this callsign
Pilot: Robert N. (17753)
Aircraft: AIRBUS A320
(A320)
More flights by this aircraft type
Origin: KIWA Williams Gateway
United States
Destination: KPVU Provo Mun
United States
More flights between these airports :: More routes between these airports
Route: +PXR1 PXR GCN BCE J11 FFU
File this flight plan on PilotEdge
Remarks: RMK / SIMBRIEF
Altitude:
(Current/Filed)
34,000ft
Speed:
(Current/Filed)
438kts
Departed: 05-Mar-20 04:42 PM
Arrived: 05-Mar-20 05:52 PM
Distance/Time
Traveled:
415nm/1:09
Distance/Time
To Go:
Arrived

Flight Plot

Page will automatically refresh every two minutes.

Flight plan parsing failed; only flown route is shown


Map Options




Map Legend


Flown Route
Filed Route
Departure Airport
Arrival Airport
Navaid (VOR, NDB)
Fix

Horizontal Profiles

Position Reports

Time Latitude Longitude Heading Altitude Ground
Speed
05-Mar-20 16:10 33.305862 -111.668715 271 1396ft 0kts
05-Mar-20 16:11 33.305862 -111.668715 271 1396ft 0kts
05-Mar-20 16:12 33.305862 -111.668715 271 1396ft 0kts
05-Mar-20 16:13 33.305862 -111.668715 271 1396ft 0kts
05-Mar-20 16:14 33.305862 -111.668715 271 1396ft 0kts
05-Mar-20 16:15 33.305862 -111.668715 271 1396ft 0kts
05-Mar-20 16:16 33.305862 -111.668715 271 1396ft 0kts
05-Mar-20 16:17 33.305862 -111.668715 271 1396ft 0kts
05-Mar-20 16:18 33.305862 -111.668715 271 1396ft 0kts
05-Mar-20 16:19 33.305862 -111.668715 271 1396ft 0kts
05-Mar-20 16:20 33.305862 -111.668715 271 1396ft 0kts
05-Mar-20 16:21 33.305862 -111.668715 271 1396ft 0kts
05-Mar-20 16:22 33.305862 -111.668715 271 1396ft 0kts
05-Mar-20 16:23 33.305862 -111.668715 271 1396ft 0kts
05-Mar-20 16:24 33.305862 -111.668715 271 1396ft 0kts
05-Mar-20 16:25 33.305862 -111.668715 271 1396ft 0kts
05-Mar-20 16:26 33.305862 -111.668715 271 1396ft 0kts
05-Mar-20 16:27 33.305862 -111.668715 271 1396ft 0kts
05-Mar-20 16:28 33.305862 -111.668715 271 1396ft 0kts
05-Mar-20 16:29 33.305845 -111.667879 271 1396ft 2kts
05-Mar-20 16:30 33.305777 -111.666918 290 1396ft 2kts
05-Mar-20 16:31 33.305515 -111.666706 355 1396ft 0kts
05-Mar-20 16:32 33.305515 -111.666706 355 1396ft 0kts
05-Mar-20 16:33 33.305515 -111.666706 355 1396ft 0kts
05-Mar-20 16:34 33.306072 -111.666739 6 1396ft 6kts
05-Mar-20 16:35 33.306196 -111.663053 121 1396ft 14kts
05-Mar-20 16:36 33.303399 -111.659568 135 1396ft 14kts
05-Mar-20 16:37 33.300372 -111.655991 134 1396ft 15kts
05-Mar-20 16:38 33.297151 -111.652169 134 1396ft 16kts
05-Mar-20 16:39 33.296669 -111.649960 46 1396ft 0kts
05-Mar-20 16:40 33.297194 -111.649326 43 1396ft 8kts
05-Mar-20 16:41 33.300416 -111.652694 314 1396ft 91kts
05-Mar-20 16:42 33.338384 -111.673410 24 3370ft 169kts
05-Mar-20 16:43 33.352920 -111.618563 118 4039ft 243kts
05-Mar-20 16:44 33.288985 -111.594243 204 4381ft 273kts
05-Mar-20 16:45 33.274161 -111.673826 302 7279ft 287kts
05-Mar-20 16:46 33.319474 -111.755551 301 9832ft 302kts
05-Mar-20 16:47 33.367992 -111.847433 302 11217ft 360kts
05-Mar-20 16:48 33.429280 -111.952852 321 12645ft 402kts
05-Mar-20 16:49 33.535922 -111.977644 359 14904ft 403kts
05-Mar-20 16:50 33.649951 -111.984991 355 16800ft 414kts
05-Mar-20 16:51 33.766420 -111.992825 355 18545ft 424kts
05-Mar-20 16:52 33.885585 -112.000986 354 20093ft 435kts
05-Mar-20 16:53 34.008024 -112.009345 354 21540ft 444kts
05-Mar-20 16:54 34.132464 -112.017867 354 22864ft 453kts
05-Mar-20 16:55 34.259892 -112.026619 353 24099ft 462kts
05-Mar-20 16:56 34.389090 -112.035534 353 25263ft 469kts
05-Mar-20 16:57 34.520233 -112.044596 353 26354ft 475kts
05-Mar-20 16:58 34.653051 -112.053802 354 27369ft 481kts
05-Mar-20 16:59 34.787715 -112.063202 353 28375ft 483kts
05-Mar-20 17:00 34.921035 -112.072473 353 29623ft 478kts
05-Mar-20 17:01 35.053010 -112.081718 353 30821ft 473kts
05-Mar-20 17:02 35.184217 -112.090944 353 31911ft 469kts
05-Mar-20 17:03 35.314087 -112.100088 353 32914ft 466kts
05-Mar-20 17:04 35.443087 -112.109207 353 33821ft 462kts
05-Mar-20 17:05 35.571110 -112.118298 352 34375ft 460kts
05-Mar-20 17:06 35.698958 -112.127405 352 34381ft 459kts
05-Mar-20 17:07 35.826781 -112.136532 352 34390ft 459kts
05-Mar-20 17:08 35.954070 -112.145648 352 34436ft 459kts
05-Mar-20 17:09 36.081549 -112.157021 351 34430ft 459kts
05-Mar-20 17:10 36.208794 -112.168277 352 34427ft 458kts
05-Mar-20 17:11 36.336203 -112.179819 352 34411ft 458kts
05-Mar-20 17:12 36.463048 -112.191255 352 34387ft 457kts
05-Mar-20 17:13 36.590409 -112.202792 351 34355ft 457kts
05-Mar-20 17:14 36.717314 -112.214324 351 34327ft 457kts
05-Mar-20 17:15 36.844180 -112.225894 351 34324ft 457kts
05-Mar-20 17:16 36.970835 -112.237490 351 34329ft 456kts
05-Mar-20 17:17 37.097088 -112.249063 351 34308ft 456kts
05-Mar-20 17:18 37.223451 -112.260705 351 34317ft 455kts
05-Mar-20 17:19 37.349970 -112.272394 351 34331ft 454kts
05-Mar-20 17:20 37.475861 -112.284068 351 34355ft 454kts
05-Mar-20 17:21 37.601829 -112.295789 351 34442ft 453kts
05-Mar-20 17:22 37.728160 -112.299250 1 34468ft 459kts
05-Mar-20 17:23 37.855297 -112.281171 1 34459ft 460kts
05-Mar-20 17:24 37.982523 -112.264119 2 34440ft 458kts
05-Mar-20 17:25 38.109473 -112.246708 2 34389ft 458kts
05-Mar-20 17:26 38.236210 -112.229287 2 34322ft 459kts
05-Mar-20 17:27 38.363142 -112.211805 2 34302ft 459kts
05-Mar-20 17:28 38.490328 -112.194223 2 34298ft 460kts
05-Mar-20 17:29 38.617439 -112.176583 2 34373ft 460kts
05-Mar-20 17:30 38.744629 -112.158838 2 33544ft 460kts
05-Mar-20 17:31 38.872686 -112.141013 2 32553ft 465kts
05-Mar-20 17:32 39.002191 -112.122803 3 31560ft 469kts
05-Mar-20 17:33 39.132537 -112.104450 3 30568ft 473kts
05-Mar-20 17:34 39.263395 -112.085979 3 29579ft 476kts
05-Mar-20 17:35 39.395268 -112.067253 3 28586ft 477kts
05-Mar-20 17:36 39.527982 -112.048379 3 27511ft 479kts
05-Mar-20 17:37 39.658560 -112.029659 3 24283ft 457kts
05-Mar-20 17:38 39.778958 -112.012364 4 21481ft 422kts
05-Mar-20 17:39 39.893992 -111.995844 4 18991ft 408kts
05-Mar-20 17:40 40.004613 -111.979849 4 16550ft 385kts
05-Mar-20 17:41 40.109794 -111.964600 4 14336ft 375kts
05-Mar-20 17:42 40.212852 -111.949680 4 11957ft 368kts
05-Mar-20 17:43 40.288335 -111.875552 77 10009ft 349kts
05-Mar-20 17:44 40.252471 -111.779438 141 8995ft 278kts
05-Mar-20 17:45 40.196412 -111.721402 142 8802ft 238kts
05-Mar-20 17:46 40.138986 -111.686582 162 7828ft 214kts
05-Mar-20 17:47 40.114912 -111.636723 44 6988ft 181kts
05-Mar-20 17:48 40.151693 -111.656014 309 6647ft 158kts
05-Mar-20 17:49 40.185267 -111.693477 331 5058ft 150kts
05-Mar-20 17:50 40.219065 -111.722554 326 4511ft 119kts
05-Mar-20 17:51 40.226851 -111.729256 59 4511ft 0kts
05-Mar-20 17:52 40.226798 -111.727833 95 4511ft 0kts
05-Mar-20 17:53 40.224797 -111.725073 143 4511ft 7kts
05-Mar-20 17:55 40.222302 -111.722844 145 4511ft 15kts
05-Mar-20 17:56 40.219602 -111.720755 156 4511ft 2kts
05-Mar-20 17:57 40.219601 -111.719583 18 4511ft 7kts
05-Mar-20 17:58 40.219926 -111.719503 8 4511ft 0kts
05-Mar-20 17:59 40.219926 -111.719503 8 4511ft 0kts

Navigation Log

Ident Type
Flight plan parsing failed, navigation log unavailable